Time;durP1;ratioP1;P1;durP2;ratioP2;P2;SDS_P1;SDS_P2;PMS_P1;PMS_P2;Temp;Humidity;BMP_temperature;BMP_pressure;BME280_temperature;BME280_humidity;BME280_pressure;Samples;Min_cycle;Max_cycle;Signal;HPM_P1;HPM_P2
2021/07/21 00:01:42;;;;;;;;;17.00;17.00;;;;;23.44;58.66;101758.84;4989630;28;45664;-69
2021/07/21 00:04:08;;;;;;;;;15.75;15.00;;;;;23.42;58.56;101761.63;4990360;28;45476;-69
2021/07/21 00:06:33;;;;;;;;;19.50;16.25;;;;;23.37;59.08;101752.25;4989528;28;54957;-71
2021/07/21 00:08:58;;;;;;;;;16.50;15.50;;;;;23.31;59.20;101750.91;4989955;28;46452;-71
2021/07/21 00:14:20;;;;;;;;;18.50;15.00;;;;;23.28;58.97;101745.78;4989514;28;45658;-69
2021/07/21 00:16:53;;;;;;;;;17.50;15.00;;;;;23.26;59.52;101745.06;4989407;28;45448;-70
2021/07/21 00:22:03;;;;;;;;;15.50;14.25;;;;;23.25;59.54;101747.88;4995078;28;45383;-69
2021/07/21 00:24:28;;;;;;;;;18.75;14.75;;;;;23.22;59.61;101745.44;4995098;28;45589;-69
2021/07/21 00:26:53;;;;;;;;;17.00;14.75;;;;;23.19;59.91;101743.88;4994463;28;45459;-69
2021/07/21 00:29:19;;;;;;;;;19.25;16.50;;;;;23.16;59.86;101744.94;4994220;28;52020;-68
2021/07/21 00:31:44;;;;;;;;;22.75;17.50;;;;;23.09;59.32;101742.88;4996349;28;59560;-69
2021/07/21 00:34:10;;;;;;;;;18.50;16.25;;;;;23.08;59.38;101747.41;4998053;28;45420;-68
2021/07/21 00:36:35;;;;;;;;;24.00;17.75;;;;;23.05;59.60;101755.69;4990262;28;45528;-68
2021/07/21 00:39:01;;;;;;;;;16.50;14.25;;;;;23.01;59.46;101754.22;4996388;28;45579;-69
2021/07/21 00:41:26;;;;;;;;;19.50;14.75;;;;;22.99;59.95;101760.69;4997142;28;47435;-69
2021/07/21 00:43:51;;;;;;;;;17.00;14.25;;;;;22.96;60.48;101763.59;4997772;28;56755;-69
2021/07/21 00:46:16;;;;;;;;;20.00;14.75;;;;;22.91;60.39;101759.44;4999711;28;45713;-68
2021/07/21 00:48:42;;;;;;;;;20.50;15.25;;;;;22.85;60.51;101757.22;4997091;28;56209;-69
2021/07/21 00:51:07;;;;;;;;;14.75;13.25;;;;;22.82;60.95;101761.97;4997455;28;46557;-68
2021/07/21 00:53:34;;;;;;;;;17.25;16.50;;;;;22.80;61.28;101755.88;4997874;28;47230;-68
2021/07/21 00:55:59;;;;;;;;;22.25;18.75;;;;;22.75;61.37;101758.06;4998695;28;45425;-69
2021/07/21 00:58:25;;;;;;;;;17.25;14.25;;;;;22.67;61.46;101762.19;4998942;28;45415;-69
2021/07/21 01:00:50;;;;;;;;;15.00;14.50;;;;;22.60;61.60;101762.78;4991585;28;46454;-69
2021/07/21 01:03:16;;;;;;;;;21.50;17.50;;;;;22.55;62.10;101763.16;4996261;28;45417;-68
2021/07/21 01:05:42;;;;;;;;;17.25;16.25;;;;;22.50;62.33;101769.81;4996988;28;45368;-69
2021/07/21 01:08:10;;;;;;;;;21.75;15.75;;;;;22.44;62.96;101763.09;4995107;28;45544;-69
2021/07/21 01:10:36;;;;;;;;;19.50;15.25;;;;;22.35;62.77;101758.47;4996074;28;46319;-69
2021/07/21 01:13:23;;;;;;;;;21.50;15.25;;;;;22.34;63.23;101760.31;4996392;28;45526;-69
2021/07/21 01:16:00;;;;;;;;;22.00;17.25;;;;;22.28;64.06;101763.44;4993644;28;45610;-69
2021/07/21 01:18:31;;;;;;;;;21.25;18.50;;;;;22.26;63.92;101767.22;4995696;28;45444;-69
2021/07/21 01:21:36;;;;;;;;;20.00;18.00;;;;;22.19;64.27;101760.63;4996644;28;46159;-69
2021/07/21 01:24:11;;;;;;;;;22.75;17.75;;;;;22.13;64.19;101762.78;4996860;28;45436;-69
2021/07/21 01:26:45;;;;;;;;;17.25;14.75;;;;;22.07;64.70;101759.66;4996231;28;45491;-69
2021/07/21 01:29:12;;;;;;;;;19.75;17.75;;;;;22.07;64.79;101768.53;4996032;28;45923;-69
2021/07/21 01:31:41;;;;;;;;;19.25;16.00;;;;;22.02;64.85;101762.69;4995342;28;46498;-69
2021/07/21 01:34:09;;;;;;;;;17.75;15.75;;;;;22.00;64.71;101761.09;4996155;28;45527;-69
2021/07/21 01:36:39;;;;;;;;;24.50;16.25;;;;;21.95;64.75;101761.44;4995266;28;45523;-69
2021/07/21 01:39:09;;;;;;;;;20.50;17.75;;;;;21.91;65.19;101761.78;4992367;28;45396;-69
2021/07/21 01:41:38;;;;;;;;;17.50;16.50;;;;;21.89;65.18;101772.63;4994375;28;46602;-69
2021/07/21 01:44:10;;;;;;;;;19.50;16.25;;;;;21.85;65.18;101763.94;4995882;28;45290;-68
2021/07/21 01:46:36;;;;;;;;;15.50;14.75;;;;;21.81;65.38;101767.81;4995292;28;45445;-69
2021/07/21 01:49:02;;;;;;;;;17.25;15.00;;;;;21.78;65.38;101772.56;4995925;28;45408;-69
2021/07/21 01:51:31;;;;;;;;;17.00;14.75;;;;;21.73;65.43;101764.00;4995429;28;45798;-68
2021/07/21 01:53:58;;;;;;;;;18.50;16.75;;;;;21.69;65.20;101766.06;4996148;28;45416;-68
2021/07/21 01:56:26;;;;;;;;;19.50;18.00;;;;;21.67;65.48;101772.50;4995306;28;45413;-68
2021/07/21 01:58:53;;;;;;;;;18.75;18.25;;;;;21.62;65.42;101771.00;4995477;28;45294;-68
2021/07/21 02:01:20;;;;;;;;;17.00;16.00;;;;;21.58;65.91;101772.19;4992914;28;46530;-68
2021/07/21 02:03:47;;;;;;;;;19.00;16.75;;;;;21.51;66.08;101778.13;4995780;28;45499;-69
2021/07/21 02:06:13;;;;;;;;;19.00;15.75;;;;;21.47;65.97;101773.94;4995441;28;45409;-69
2021/07/21 02:08:40;;;;;;;;;26.25;19.25;;;;;21.44;66.45;101774.16;4995150;28;45772;-69
2021/07/21 02:11:06;;;;;;;;;19.50;15.50;;;;;21.42;66.31;101781.44;4995018;28;46377;-69
2021/07/21 02:13:33;;;;;;;;;18.50;15.25;;;;;21.40;66.12;101778.00;4995198;28;46159;-68
2021/07/21 02:16:01;;;;;;;;;20.00;17.50;;;;;21.37;66.83;101781.78;4976296;28;45452;-69
2021/07/21 02:18:28;;;;;;;;;17.50;16.25;;;;;21.37;66.60;101789.78;4995050;28;45320;-69
2021/07/21 02:20:55;;;;;;;;;20.50;15.50;;;;;21.31;66.90;101775.03;4995499;28;46555;-68
2021/07/21 02:23:26;;;;;;;;;25.25;17.25;;;;;21.31;66.65;101784.88;4992760;28;45358;-68
2021/07/21 02:25:56;;;;;;;;;22.25;18.25;;;;;21.26;66.83;101777.16;4991550;28;45415;-68
2021/07/21 02:28:22;;;;;;;;;17.75;16.25;;;;;21.23;66.79;101771.16;4995278;28;45511;-68
2021/07/21 02:30:51;;;;;;;;;19.50;16.75;;;;;21.21;66.53;101776.63;4994974;28;46545;-69
2021/07/21 02:33:44;;;;;;;;;23.25;19.50;;;;;21.21;67.46;101779.31;4995224;28;45227;-68
2021/07/21 02:36:09;;;;;;;;;17.00;15.50;;;;;21.19;67.16;101791.91;4986622;28;45548;-68
2021/07/21 02:38:35;;;;;;;;;22.00;17.75;;;;;21.19;67.09;101791.06;4995147;28;45617;-69
2021/07/21 02:41:00;;;;;;;;;21.25;17.50;;;;;21.15;67.06;101785.09;4995029;28;46010;-68
2021/07/21 02:43:26;;;;;;;;;16.50;16.50;;;;;21.11;67.85;101784.44;4994983;28;45460;-68
2021/07/21 02:45:52;;;;;;;;;18.50;16.25;;;;;21.11;67.36;101778.25;4995314;28;45501;-68
2021/07/21 02:48:17;;;;;;;;;21.75;18.00;;;;;21.07;67.69;101777.59;4994674;28;45779;-68
2021/07/21 02:50:47;;;;;;;;;23.75;17.25;;;;;21.04;68.06;101780.50;4995019;28;46296;-68
2021/07/21 02:53:19;;;;;;;;;17.00;15.75;;;;;20.99;68.27;101769.28;4993949;28;45494;-68
2021/07/21 02:55:50;;;;;;;;;18.25;16.50;;;;;20.98;68.04;101777.38;4994567;28;45349;-69
2021/07/21 02:58:39;;;;;;;;;22.00;19.25;;;;;20.95;68.36;101781.16;4994911;28;45524;-68
2021/07/21 03:01:06;;;;;;;;;20.50;16.75;;;;;20.92;68.60;101784.03;4994662;28;46830;-68
2021/07/21 03:03:35;;;;;;;;;23.75;18.50;;;;;20.91;68.33;101784.13;4994445;28;45476;-68
2021/07/21 03:06:08;;;;;;;;;17.25;16.75;;;;;20.86;68.73;101779.09;4995283;28;45489;-68
2021/07/21 03:08:34;;;;;;;;;24.25;19.00;;;;;20.85;68.56;101780.06;4994125;28;45298;-69
2021/07/21 03:11:01;;;;;;;;;17.75;16.25;;;;;20.83;68.83;101777.53;4994555;28;46249;-69
2021/07/21 03:13:35;;;;;;;;;18.25;17.50;;;;;20.81;69.12;101783.91;4994414;28;45699;-68
2021/07/21 03:16:02;;;;;;;;;23.75;21.00;;;;;20.76;69.41;101781.56;4994628;28;45434;-69
2021/07/21 03:18:30;;;;;;;;;20.00;19.50;;;;;20.77;68.98;101783.25;4994397;28;45442;-68
2021/07/21 03:20:56;;;;;;;;;21.25;17.00;;;;;20.77;69.10;101785.94;4994295;28;45522;-68
2021/07/21 03:23:24;;;;;;;;;23.00;17.00;;;;;20.76;69.16;101791.41;4991805;28;45350;-68
2021/07/21 03:25:53;;;;;;;;;19.50;16.25;;;;;20.73;69.03;101791.63;4994385;28;45689;-68
2021/07/21 03:28:21;;;;;;;;;20.50;18.50;;;;;20.58;69.78;101773.00;4994239;28;45802;-69
2021/07/21 03:30:48;;;;;;;;;20.75;18.25;;;;;20.67;69.68;101797.38;4993734;28;45340;-68
2021/07/21 03:33:15;;;;;;;;;21.00;17.50;;;;;20.66;69.45;101799.19;4993466;28;45437;-69
2021/07/21 03:35:41;;;;;;;;;22.75;17.50;;;;;20.61;69.84;101795.13;4993662;28;45385;-69
2021/07/21 03:38:07;;;;;;;;;19.25;15.75;;;;;20.62;70.10;101804.84;4993878;28;45506;-68
2021/07/21 03:40:33;;;;;;;;;24.75;19.00;;;;;20.52;69.37;101785.94;4993763;28;45575;-68
2021/07/21 03:42:59;;;;;;;;;22.50;17.00;;;;;20.57;69.69;101795.34;4994796;28;45652;-70
2021/07/21 03:45:28;;;;;;;;;18.75;16.25;;;;;20.55;69.80;101805.25;4994254;28;45530;-68
2021/07/21 03:47:54;;;;;;;;;23.50;19.25;;;;;20.53;69.58;101801.00;4994130;28;45593;-69
2021/07/21 03:50:23;;;;;;;;;20.25;16.50;;;;;20.54;69.86;101805.38;4993855;28;46281;-68
2021/07/21 03:52:49;;;;;;;;;21.75;21.50;;;;;20.53;70.01;101798.31;4991161;28;45771;-68
2021/07/21 03:55:17;;;;;;;;;27.00;21.00;;;;;20.50;69.38;101796.69;4994426;28;45503;-69
2021/07/21 03:57:46;;;;;;;;;23.00;19.00;;;;;20.48;69.61;101798.63;4994105;28;45460;-69
2021/07/21 04:00:16;;;;;;;;;24.50;20.75;;;;;20.45;69.65;101798.78;4993971;28;47091;-68
2021/07/21 04:02:45;;;;;;;;;23.00;18.75;;;;;20.43;69.68;101790.03;4993012;28;45555;-68
2021/07/21 04:05:14;;;;;;;;;25.25;20.50;;;;;20.41;69.56;101799.09;4995451;28;45486;-68
2021/07/21 04:07:41;;;;;;;;;23.25;20.50;;;;;20.39;70.03;101801.88;4997167;28;45394;-68
2021/07/21 04:10:07;;;;;;;;;27.00;21.50;;;;;20.37;70.16;101800.28;4997476;28;45987;-69
2021/07/21 04:12:39;;;;;;;;;25.25;22.00;;;;;20.37;69.60;101806.47;4997095;28;45810;-69
2021/07/21 04:15:05;;;;;;;;;29.75;22.50;;;;;20.34;69.89;101806.69;4987932;28;45970;-69
2021/07/21 04:17:31;;;;;;;;;26.00;22.50;;;;;20.34;70.35;101809.34;4996982;28;45289;-68
2021/07/21 04:19:59;;;;;;;;;25.75;21.25;;;;;20.35;70.19;101819.06;4996883;28;46419;-68
2021/07/21 04:22:25;;;;;;;;;31.25;23.25;;;;;20.33;70.42;101815.66;4997471;28;45330;-69
2021/07/21 04:24:50;;;;;;;;;25.00;21.25;;;;;20.35;70.48;101811.06;4996697;28;45499;-68
2021/07/21 04:27:16;;;;;;;;;28.25;21.00;;;;;20.35;70.65;101813.72;4996770;28;45407;-69
2021/07/21 04:29:46;;;;;;;;;19.50;15.25;;;;;20.39;70.17;101822.38;4996911;28;46691;-69
2021/07/21 04:32:13;;;;;;;;;28.75;21.00;;;;;20.38;70.38;101818.88;4996887;28;45480;-68
2021/07/21 04:34:39;;;;;;;;;26.25;22.25;;;;;20.37;70.26;101827.84;4996248;28;45400;-69
2021/07/21 04:37:05;;;;;;;;;26.00;23.25;;;;;20.37;70.88;101819.84;4996755;28;45582;-68
2021/07/21 04:39:31;;;;;;;;;24.25;22.25;;;;;20.36;70.67;101823.47;4995145;28;45547;-69
2021/07/21 04:41:57;;;;;;;;;26.00;23.00;;;;;20.39;70.26;101817.91;4978913;28;45397;-68
2021/07/21 04:44:22;;;;;;;;;27.25;23.00;;;;;20.43;70.57;101821.22;4993813;28;45393;-68
2021/07/21 04:46:48;;;;;;;;;23.75;21.25;;;;;20.47;70.46;101820.09;4985748;28;45404;-68
2021/07/21 04:49:18;;;;;;;;;33.25;26.75;;;;;20.51;71.16;101829.59;4989325;28;45501;-68
2021/07/21 04:51:46;;;;;;;;;23.00;19.75;;;;;20.52;70.45;101829.50;4990462;28;45862;-68
2021/07/21 04:54:12;;;;;;;;;29.25;26.00;;;;;20.56;71.08;101831.00;4996729;28;45383;-68
2021/07/21 04:56:38;;;;;;;;;26.00;25.25;;;;;20.61;70.94;101832.50;4997080;28;45365;-68
2021/07/21 04:59:03;;;;;;;;;29.75;24.75;;;;;20.65;70.67;101834.03;4995744;28;46280;-68
2021/07/21 05:01:29;;;;;;;;;28.00;24.00;;;;;20.69;70.31;101835.53;4995086;28;45468;-68
2021/07/21 05:03:54;;;;;;;;;27.25;25.50;;;;;20.75;70.63;101838.63;4996559;28;45515;-68
2021/07/21 05:06:23;;;;;;;;;28.00;22.75;;;;;20.81;70.24;101853.38;4996886;28;45393;-69
2021/07/21 05:08:50;;;;;;;;;30.75;26.00;;;;;20.85;70.52;101850.41;4991688;28;45345;-68
2021/07/21 05:11:15;;;;;;;;;34.25;25.25;;;;;20.90;69.99;101854.56;4994709;28;45655;-69
2021/07/21 05:13:41;;;;;;;;;27.25;22.25;;;;;20.95;70.67;101853.31;4993221;28;45683;-69
2021/07/21 05:16:08;;;;;;;;;32.50;29.00;;;;;21.02;70.47;101854.56;4994495;28;45527;-69
2021/07/21 05:18:34;;;;;;;;;30.00;23.50;;;;;21.09;70.29;101849.69;4986042;28;49039;-69
2021/07/21 05:20:59;;;;;;;;;31.50;24.25;;;;;21.18;69.55;101854.38;4992883;28;45694;-69
2021/07/21 05:23:25;;;;;;;;;23.50;21.75;;;;;21.28;69.86;101863.44;4995949;28;45321;-69
2021/07/21 05:25:50;;;;;;;;;26.50;24.50;;;;;21.39;69.30;101862.72;4995743;28;45361;-69
2021/07/21 05:28:15;;;;;;;;;28.25;21.25;;;;;21.49;69.08;101862.94;5007576;28;47129;-69
2021/07/21 05:30:41;;;;;;;;;25.00;21.50;;;;;21.58;69.09;101865.81;4995090;28;45623;-68
2021/07/21 05:33:06;;;;;;;;;28.50;22.00;;;;;21.66;68.85;101864.41;4989696;28;45445;-70
2021/07/21 05:35:31;;;;;;;;;24.00;19.50;;;;;21.76;68.64;101868.97;4987668;28;47035;-68
2021/07/21 05:37:57;;;;;;;;;29.50;24.75;;;;;21.85;68.04;101873.66;4994648;28;45305;-68
2021/07/21 05:40:23;;;;;;;;;32.50;28.25;;;;;21.93;67.51;101875.81;4991594;28;45423;-68
2021/07/21 05:42:49;;;;;;;;;31.75;24.25;;;;;22.05;67.40;101877.56;4992524;28;45495;-67
2021/07/21 05:45:15;;;;;;;;;24.75;21.75;;;;;22.13;66.90;101880.59;4996350;28;45418;-69
2021/07/21 05:47:40;;;;;;;;;27.25;23.00;;;;;22.24;66.41;101874.44;4993703;28;46440;-68
2021/07/21 05:50:07;;;;;;;;;23.00;22.00;;;;;22.34;65.95;101878.16;4991853;28;45381;-69
2021/07/21 05:52:32;;;;;;;;;29.50;23.00;;;;;22.43;65.29;101879.25;4989404;28;45535;-68
2021/07/21 05:54:58;;;;;;;;;34.75;25.25;;;;;22.54;64.60;101884.66;4993586;28;45440;-69
2021/07/21 05:57:25;;;;;;;;;25.00;21.25;;;;;22.70;64.89;101891.56;4995358;28;46522;-70
2021/07/21 05:59:51;;;;;;;;;29.75;25.25;;;;;22.80;64.52;101880.00;4990339;28;45509;-69
2021/07/21 06:02:16;;;;;;;;;28.50;26.25;;;;;22.93;63.81;101874.63;4990792;28;45510;-69
2021/07/21 06:04:42;;;;;;;;;31.00;26.25;;;;;23.03;63.64;101882.81;4989553;28;45471;-70
2021/07/21 06:07:08;;;;;;;;;26.00;20.50;;;;;23.14;63.41;101888.19;4994618;28;58842;-70
2021/07/21 06:09:34;;;;;;;;;31.75;27.00;;;;;23.27;63.06;101888.06;4994821;28;48152;-69
2021/07/21 06:11:59;;;;;;;;;31.50;23.75;;;;;23.38;62.91;101891.59;4993060;28;45448;-69
2021/07/21 06:14:26;;;;;;;;;28.50;23.25;;;;;23.47;62.16;101884.66;4990639;28;45466;-70
2021/07/21 06:16:52;;;;;;;;;33.75;26.00;;;;;23.58;62.43;101886.50;4994024;28;45407;-69
2021/07/21 06:19:17;;;;;;;;;29.50;28.25;;;;;23.64;62.03;101903.00;4990388;28;45822;-70
2021/07/21 06:21:42;;;;;;;;;28.50;22.75;;;;;23.73;61.86;101895.19;4994529;28;45354;-70
2021/07/21 06:24:08;;;;;;;;;32.00;27.25;;;;;23.79;61.23;101892.00;4992668;28;59240;-68
2021/07/21 06:26:33;;;;;;;;;31.75;25.50;;;;;23.88;61.41;101900.19;4994649;28;46763;-67
2021/07/21 06:28:58;;;;;;;;;32.25;23.75;;;;;23.95;61.03;101904.06;4988993;28;45376;-67
2021/07/21 06:31:23;;;;;;;;;29.25;24.75;;;;;24.01;60.88;101910.75;4985453;28;46808;-67
2021/07/21 06:33:49;;;;;;;;;22.50;20.50;;;;;24.05;60.35;101914.91;4995443;28;45691;-68
2021/07/21 06:36:14;;;;;;;;;30.50;24.25;;;;;24.12;60.74;101916.13;4995505;28;46939;-68
2021/07/21 06:38:40;;;;;;;;;32.75;26.50;;;;;24.21;59.74;101920.75;4995870;28;45495;-68
2021/07/21 06:41:05;;;;;;;;;28.75;23.25;;;;;24.29;59.66;101917.44;4995366;28;45787;-68
2021/07/21 06:43:30;;;;;;;;;35.50;27.25;;;;;24.36;59.72;101923.19;4994707;28;45591;-67
2021/07/21 06:45:56;;;;;;;;;27.50;24.50;;;;;24.45;59.36;101933.19;4995944;28;46366;-68
2021/07/21 06:48:21;;;;;;;;;28.25;26.75;;;;;24.45;59.00;101917.06;4994465;28;45677;-68
2021/07/21 06:50:47;;;;;;;;;35.25;26.50;;;;;24.57;58.97;101934.84;4993143;28;45555;-68
2021/07/21 06:53:12;;;;;;;;;27.00;23.00;;;;;24.65;58.16;101926.16;4990047;28;45626;-68
2021/07/21 06:55:37;;;;;;;;;28.75;25.50;;;;;24.72;58.18;101928.19;4992767;28;59202;-68
2021/07/21 06:58:03;;;;;;;;;29.00;22.25;;;;;24.80;58.40;101937.47;4988594;28;47655;-69
2021/07/21 07:00:29;;;;;;;;;30.00;24.75;;;;;24.87;57.57;101928.72;4974495;28;45414;-68
2021/07/21 07:02:55;;;;;;;;;31.00;27.00;;;;;24.97;57.64;101935.03;4994697;28;45956;-67
2021/07/21 07:05:20;;;;;;;;;32.00;27.75;;;;;25.07;57.45;101936.97;4994994;28;46630;-68
2021/07/21 07:07:46;;;;;;;;;27.50;25.50;;;;;25.16;57.07;101937.06;4995352;28;45712;-67
2021/07/21 07:10:11;;;;;;;;;29.25;23.00;;;;;25.26;56.98;101931.69;4994346;28;45432;-68
2021/07/21 07:12:37;;;;;;;;;34.25;27.25;;;;;25.40;57.24;101935.91;4989318;28;45302;-70
2021/07/21 07:15:06;;;;;;;;;27.50;23.75;;;;;25.50;56.67;101934.97;4993101;28;45373;-68
2021/07/21 07:17:32;;;;;;;;;33.25;22.50;;;;;25.59;56.44;101930.63;4994911;28;45480;-68
2021/07/21 07:19:57;;;;;;;;;28.00;23.50;;;;;25.76;55.66;101931.84;4995732;28;45508;-68
2021/07/21 07:22:23;;;;;;;;;31.25;22.75;;;;;25.87;55.05;101933.59;4995790;28;45471;-68
2021/07/21 07:24:48;;;;;;;;;28.50;25.50;;;;;25.98;55.27;101933.47;4995342;28;56003;-68
2021/07/21 07:27:14;;;;;;;;;28.50;24.00;;;;;26.09;54.25;101940.59;4991539;28;45548;-68
2021/07/21 07:29:40;;;;;;;;;31.75;26.50;;;;;26.26;54.89;101935.41;4994244;28;45675;-68
2021/07/21 07:32:06;;;;;;;;;24.75;21.50;;;;;26.45;54.28;101936.44;4996009;28;45531;-68
2021/07/21 07:34:32;;;;;;;;;30.75;28.25;;;;;26.68;53.64;101943.28;4992057;28;47340;-68
2021/07/21 07:36:57;;;;;;;;;32.50;24.75;;;;;27.04;53.71;101935.44;4981392;28;45390;-68
2021/07/21 07:39:23;;;;;;;;;33.00;29.00;;;;;27.36;52.61;101937.84;4989541;28;45438;-68
2021/07/21 07:41:49;;;;;;;;;29.00;24.00;;;;;27.50;52.23;101931.09;4998452;28;45851;-68
2021/07/21 07:44:14;;;;;;;;;31.25;26.50;;;;;27.79;51.17;101940.00;4997599;28;45679;-68
2021/07/21 07:46:40;;;;;;;;;29.00;25.00;;;;;28.00;51.76;101936.19;4997363;28;45600;-69
2021/07/21 07:49:06;;;;;;;;;21.50;20.00;;;;;28.40;51.52;101932.25;4996591;28;45701;-68
2021/07/21 07:51:33;;;;;;;;;27.00;23.75;;;;;29.06;50.07;101935.41;4992937;28;45337;-68
2021/07/21 07:54:01;;;;;;;;;35.50;25.25;;;;;29.27;48.23;101935.06;4996902;28;46211;-68
2021/07/21 07:56:27;;;;;;;;;24.50;23.00;;;;;29.62;47.68;101933.28;4997347;28;45553;-69
2021/07/21 07:58:53;;;;;;;;;33.25;25.00;;;;;29.86;46.90;101929.81;4997667;28;45551;-68
2021/07/21 08:01:18;;;;;;;;;29.25;25.75;;;;;30.41;47.10;101927.47;4992088;28;45370;-68
2021/07/21 08:03:43;;;;;;;;;26.50;23.75;;;;;31.03;45.89;101923.44;4997737;28;46221;-68
2021/07/21 08:06:09;;;;;;;;;34.25;27.00;;;;;32.61;44.77;101928.78;4998053;28;45321;-69
2021/07/21 08:08:34;;;;;;;;;28.50;26.00;;;;;33.86;43.32;101937.25;4997031;28;45673;-69
2021/07/21 08:11:00;;;;;;;;;30.25;25.25;;;;;34.65;41.05;101933.75;4997393;28;45435;-69
2021/07/21 08:13:26;;;;;;;;;29.25;23.00;;;;;35.36;38.96;101931.00;4996994;28;47401;-69
2021/07/21 08:15:51;;;;;;;;;28.25;24.25;;;;;36.08;39.14;101930.56;4997566;28;45591;-69
2021/07/21 08:18:17;;;;;;;;;24.75;23.75;;;;;37.05;37.67;101930.06;4997318;28;45646;-69
2021/07/21 08:20:43;;;;;;;;;28.25;24.50;;;;;37.37;35.88;101930.25;4997651;28;45486;-69
2021/07/21 08:23:09;;;;;;;;;30.00;24.50;;;;;37.14;35.51;101936.19;4988774;28;45599;-68
2021/07/21 08:25:35;;;;;;;;;28.50;21.50;;;;;36.82;35.42;101940.59;4987517;28;45368;-70
2021/07/21 08:28:01;;;;;;;;;25.75;21.25;;;;;36.80;35.73;101938.03;4997495;28;45460;-69
2021/07/21 08:30:26;;;;;;;;;29.75;25.00;;;;;37.88;34.34;101937.69;4996885;28;45334;-70
2021/07/21 08:32:53;;;;;;;;;26.50;21.25;;;;;40.04;33.87;101948.09;4997284;28;46318;-69
2021/07/21 08:35:21;;;;;;;;;30.75;25.50;;;;;42.23;31.43;101942.31;4997149;28;45454;-69
2021/07/21 08:37:46;;;;;;;;;20.50;20.50;;;;;43.79;29.17;101940.56;4996541;28;45397;-69
2021/07/21 08:40:13;;;;;;;;;26.75;21.75;;;;;44.58;27.79;101945.56;5011571;28;45568;-69
2021/07/21 08:42:39;;;;;;;;;25.25;21.00;;;;;44.06;27.88;101945.31;4981036;28;45593;-69
2021/07/21 08:45:06;;;;;;;;;23.50;20.50;;;;;43.39;27.30;101943.66;4997595;28;45425;-70
2021/07/21 08:47:32;;;;;;;;;24.50;21.00;;;;;42.78;27.21;101945.50;4995767;28;45516;-69
2021/07/21 08:49:58;;;;;;;;;27.00;23.25;;;;;42.07;27.73;101937.56;4996224;28;45464;-69
2021/07/21 08:52:24;;;;;;;;;22.75;21.50;;;;;42.54;27.56;101945.63;4995969;28;46265;-70
2021/07/21 08:54:52;;;;;;;;;31.75;25.50;;;;;43.57;26.92;101942.53;4997308;28;45314;-70
2021/07/21 08:57:17;;;;;;;;;26.25;23.00;;;;;45.70;26.57;101937.97;4995247;28;45514;-69
2021/07/21 08:59:44;;;;;;;;;30.50;26.75;;;;;47.61;24.07;101944.06;4996728;28;45401;-69
2021/07/21 09:02:11;;;;;;;;;25.00;20.75;;;;;48.74;23.70;101945.00;4996142;28;46350;-69
2021/07/21 09:04:36;;;;;;;;;19.50;19.00;;;;;49.20;22.16;101938.13;4996405;28;45459;-69
2021/07/21 09:07:03;;;;;;;;;22.00;19.75;;;;;49.22;21.38;101942.28;4996365;28;45462;-70
2021/07/21 09:09:29;;;;;;;;;19.25;17.25;;;;;48.74;22.30;101944.19;4996635;28;45599;-70
2021/07/21 09:11:56;;;;;;;;;23.00;17.75;;;;;47.89;21.45;101944.50;4996751;28;45760;-71
2021/07/21 09:14:22;;;;;;;;;19.75;17.50;;;;;47.12;23.07;101949.53;4996221;28;45642;-70
2021/07/21 09:17:16;;;;;;;;;21.50;19.00;;;;;46.55;23.10;101957.94;4995964;28;46961;-70
2021/07/21 09:19:45;;;;;;;;;21.25;17.50;;;;;46.11;23.02;101940.06;4981553;28;45480;-70
2021/07/21 09:22:19;;;;;;;;;21.25;20.00;;;;;45.52;22.39;101953.19;4989669;28;47699;-70
2021/07/21 09:24:46;;;;;;;;;21.00;18.50;;;;;44.82;23.25;101954.38;4981253;28;45425;-69
2021/07/21 09:27:12;;;;;;;;;17.50;17.00;;;;;44.24;23.68;101954.16;4992440;28;45302;-70
2021/07/21 09:29:41;;;;;;;;;24.00;20.50;;;;;43.57;23.73;101956.38;4996289;28;45312;-70
2021/07/21 09:32:07;;;;;;;;;24.00;19.25;;;;;42.86;24.28;101948.66;4995885;28;46256;-69
2021/07/21 09:34:34;;;;;;;;;19.25;17.50;;;;;42.52;24.80;101956.09;4977947;28;46223;-69
2021/07/21 09:37:05;;;;;;;;;19.50;19.50;;;;;42.09;25.15;101943.69;4996036;28;45488;-70
2021/07/21 09:39:36;;;;;;;;;21.75;19.00;;;;;41.73;25.65;101947.63;4996001;28;45333;-72
2021/07/21 09:42:03;;;;;;;;;21.75;15.50;;;;;41.58;26.35;101944.56;4996741;28;46161;-69
2021/07/21 09:44:37;;;;;;;;;19.75;17.50;;;;;41.36;25.21;101953.47;4995867;28;45249;-69
2021/07/21 09:47:13;;;;;;;;;18.75;18.00;;;;;41.11;25.88;101945.44;4992592;28;45444;-70
2021/07/21 09:49:38;;;;;;;;;18.25;15.00;;;;;40.76;26.35;101945.38;4995319;28;45406;-70
2021/07/21 09:52:19;;;;;;;;;21.25;19.00;;;;;40.42;26.73;101946.97;4995567;28;46342;-69
2021/07/21 09:55:07;;;;;;;;;18.25;16.50;;;;;40.01;26.81;101942.25;4981307;28;45523;-69
2021/07/21 09:57:33;;;;;;;;;22.50;19.25;;;;;39.69;27.12;101936.94;4995740;28;45512;-69
2021/07/21 09:59:59;;;;;;;;;23.00;21.75;;;;;39.54;27.63;101936.47;4996216;28;45391;-69
2021/07/21 10:02:25;;;;;;;;;22.25;19.50;;;;;39.36;27.62;101935.41;4994254;28;46061;-69
2021/07/21 10:04:52;;;;;;;;;19.50;17.75;;;;;39.31;27.61;101942.63;4994998;28;45778;-69
2021/07/21 10:07:49;;;;;;;;;18.75;18.50;;;;;39.13;27.50;101937.91;4995893;28;45890;-70
2021/07/21 10:10:19;;;;;;;;;21.50;17.75;;;;;38.95;27.49;101946.97;4995325;28;45406;-69
2021/07/21 10:12:58;;;;;;;;;18.50;17.75;;;;;38.85;27.90;101935.66;4995079;28;46582;-69
2021/07/21 10:15:24;;;;;;;;;17.25;14.50;;;;;38.77;28.11;101936.75;4995929;28;45359;-69
2021/07/21 10:18:11;;;;;;;;;18.25;16.50;;;;;38.68;28.06;101932.56;4991095;28;45523;-70
2021/07/21 10:20:39;;;;;;;;;22.75;18.75;;;;;38.58;28.54;101930.34;4995540;28;45358;-69
2021/07/21 10:23:05;;;;;;;;;16.00;16.00;;;;;38.49;28.43;101934.44;4995518;28;46620;-69
2021/07/21 10:25:31;;;;;;;;;18.00;17.25;;;;;38.36;28.31;101937.25;4993252;28;45594;-69
2021/07/21 10:28:00;;;;;;;;;19.75;17.75;;;;;38.27;28.78;101935.81;4995168;28;45413;-70
2021/07/21 10:30:28;;;;;;;;;18.50;15.00;;;;;38.12;28.29;101936.13;4995031;28;45460;-69
2021/07/21 10:32:55;;;;;;;;;14.50;14.50;;;;;37.87;28.42;101927.78;4995103;28;47463;-69
2021/07/21 10:35:22;;;;;;;;;18.75;16.25;;;;;37.70;28.70;101932.06;4994372;28;45535;-69
2021/07/21 10:37:48;;;;;;;;;18.25;16.00;;;;;37.48;29.12;101929.56;4995266;28;45345;-69
2021/07/21 10:40:14;;;;;;;;;18.75;18.25;;;;;37.29;29.12;101927.72;4995221;28;45501;-69
2021/07/21 10:42:41;;;;;;;;;19.75;18.25;;;;;37.12;29.58;101926.47;4994826;28;46280;-69
2021/07/21 10:45:17;;;;;;;;;19.50;16.25;;;;;36.81;29.68;101928.81;4991377;28;45573;-69
2021/07/21 10:47:45;;;;;;;;;16.75;15.50;;;;;36.57;30.08;101929.41;4994070;28;45419;-69
2021/07/21 10:50:59;;;;;;;;;16.00;14.25;;;;;36.49;30.00;101929.59;4994744;28;45481;-69
2021/07/21 10:53:23;;;;;;;;;22.00;16.25;;;;;36.39;29.87;101926.38;4993597;28;45976;-69
2021/07/21 10:59:10;;;;;;;;;19.50;18.00;;;;;36.28;30.67;101919.63;4994613;28;45476;-70
2021/07/21 11:01:26;;;;;;;;;19.50;18.00;;;;;36.25;30.72;101920.91;4991201;28;45446;-69
2021/07/21 11:04:03;;;;;;;;;19.25;18.50;;;;;36.30;31.68;101915.66;4994453;28;45472;-69
2021/07/21 11:06:42;;;;;;;;;19.50;17.75;;;;;36.25;31.25;101914.59;4990933;28;45494;-69
2021/07/21 11:09:17;;;;;;;;;18.75;17.00;;;;;36.20;31.09;101919.84;4981892;28;45369;-69
2021/07/21 11:11:44;;;;;;;;;19.00;15.75;;;;;36.04;30.81;101902.75;4994154;28;45495;-69
2021/07/21 11:14:14;;;;;;;;;17.75;16.00;;;;;36.01;31.41;101913.25;4994082;28;45544;-69
2021/07/21 11:16:46;;;;;;;;;20.25;16.75;;;;;35.84;31.56;101914.66;4993950;28;45598;-69
2021/07/21 11:19:26;;;;;;;;;18.00;15.75;;;;;35.77;31.78;101914.63;4994524;28;45514;-70
2021/07/21 11:21:54;;;;;;;;;21.50;19.75;;;;;35.56;30.93;101904.66;4980708;28;45641;-69